Toeterville, Iowa
Current Conditions -  °F | °C
As of 2:56 PM on Tuesday 25 Nov 2014 (Local Time) from KAUM Reporting Station
Broken Clouds Broken Clouds  
Wind Chill: 17°   Ceiling: 6000
Heat Index: 25°   Visibility: 10mi
Dew Point: 12°   Wind: 7mph
Humidity: 59%   Direction: 200°SSW
Pressure: 30.04"   Gusts: NA
Location:  43.44°N, 92.89°W
Report Text: KAUM 252056Z AUTO 20006KT 10SM BKN060 M04/M11 A3004 RMK AO2
Loading
Personal Weather Stations






























Interactive Weather Map New forecast layout! Learn more

10-Day Weather Forecast

Advertisements
Track Severe Weather on mobile